x

Buoy A01 - Mass. Bay/stellwagen (44029) Wave Buoy

12:04am - Mon 23rd Oct 2017 All times are EDT. -4 hours from GMT.

  • Sig Wave height 1.6ft
  • Peak Period 11s
  • Wind
    4mph, 4mph gusts
  • Sea Temp 59°f
  • Air Temp 56°f
  • Sea Pressure 1028.7mb
  • Buoy A01 - Mass. Bay/stellwagen
  • Buoy A01 - Mass. Bay/stellwagen

More Historic Weather Station data

Upgrade to MSW Pro to gain access to the past 30 days of data for over 8000 Wavebouys and Weather Stations around the globe.

Join

Comparision Forecast

View Surf forecast
   
Mon 10/23 12:04am 1.6ft 11s 4 4 mph 1028.7mb 59f 56f
Sun 10/22 11:04pm 2ft 11s 7 9 mph 1029mb 59f 56f
10:04pm 1.6ft 11s 7 7 mph 1029.1mb 59f 57f
9:04pm 2.5ft 5s 7 7 mph 1029mb 59f 58f
8:04pm 2ft 11s 7 9 mph 1028.9mb 59f 58f
7:04pm 2ft 11s 11 13 mph 1028.7mb 59f 58f
6:04pm 1.3ft 4s 11 13 mph 1028.6mb 59f 58f
5:04pm 1.3ft 4s 11 13 mph 1028.4mb 59f 58f
4:04pm 1.3ft 3s 11 13 mph 1028.2mb 60f 59f
3:04pm 1ft 3s 11 13 mph 1028.4mb 60f 59f
2:04pm 1.3ft 3s 11 13 mph 1028.4mb 59f 59f
1:04pm 1ft 3s 11 13 mph 1028.5mb 59f 59f
12:04pm 1.3ft 11s 11 13 mph 1028.8mb 59f 59f
11:04am 1.3ft 11s 9 11 mph 1028.9mb 59f 59f
10:04am 1.3ft 11s 7 9 mph 1029mb 59f 59f
9:04am 1.3ft 11s 9 11 mph 1028.9mb 59f 59f
8:04am 1.3ft 11s 2 4 mph 1028.2mb 59f 59f
7:04am 1.3ft 8s 2 4 mph 1027.6mb 59f 59f
6:04am 1ft 11s 4 7 mph 1027mb 59f 59f
5:04am 1ft 11s 4 4 mph 1026.6mb 59f 59f
4:04am 1ft 8s 4 4 mph 1026.2mb 59f 59f
3:04am 1ft 11s 9 9 mph 1025.8mb 59f 60f
2:04am 1ft 3s 7 9 mph 1025.6mb 59f 60f
1:04am 1.3ft 11s 7 9 mph 1025.5mb 59f 60f
12:04am 1.3ft 8s 7 9 mph 1025.6mb 59f 61f
Sat 10/21 11:04pm 1ft 3s 9 9 mph 1025.5mb 59f 61f
10:04pm 1ft 3s 7 9 mph 1025.5mb 59f 61f
9:04pm 1.6ft 8s 9 11 mph 1025.2mb 59f 62f
8:04pm 1.6ft 8s 11 13 mph 1025mb 59f 62f
7:04pm 1.3ft 11s 9 11 mph 1024.7mb 60f 63f
6:04pm 1.3ft 8s 7 7 mph 1024.1mb 59f 62f
5:04pm 1.3ft 8s 9 11 mph 1023.1mb 60f 63f
4:04pm 1.3ft 8s 9 11 mph 1023mb 59f 63f
3:04pm 1ft 3s 7 9 mph 1023.1mb 59f 63f
2:04pm 1ft 8s 11 11 mph 1023.2mb 59f 62f
1:04pm 1ft 8s 9 9 mph 1023.8mb 59f 60f
12:04pm 1ft 8s 9 11 mph 1024.3mb 59f 60f
11:04am 1.6ft 11s 9 11 mph 1024.6mb 59f 60f
10:04am 1ft 8s 9 9 mph 1024.5mb 59f 59f
9:04am 1.3ft 8s 11 13 mph 1024.3mb 59f 58f
8:04am 1.3ft 8s 9 9 mph 1023.8mb 59f 60f
7:04am 1ft 8s 4 7 mph 1023.1mb 59f 58f
6:04am 0.7ft  -  4 4 mph 1023mb 59f 58f
5:04am 1ft 8s 7 9 mph 1022.5mb 59f 58f
4:04am 1ft 8s 7 7 mph 1021.7mb 59f 59f
3:04am 1ft 8s 2 4 mph 1021.2mb 59f 59f
2:04am 1ft 8s 4 7 mph 1020.9mb 59f 60f
1:04am 1ft 8s 9 9 mph 1020.3mb 59f 61f
12:04am 1ft 8s 7 9 mph 1019.7mb 59f 61f
Fri 10/20 11:04pm 1ft 2s 9 11 mph 1019.1mb 59f 61f
10:04pm 1.3ft 8s 9 11 mph 1018.7mb 59f 62f
9:04pm 1.3ft 8s 9 13 mph 1018mb 59f 63f
8:04pm 1ft 3s 9 11 mph 1017mb 59f 63f
7:04pm 1ft 3s 13 16 mph 1016.4mb 59f 64f
6:04pm 1.3ft 3s 11 13 mph 1015.5mb 59f 65f
5:04pm 1.3ft 3s 13 16 mph 1014.9mb 59f 66f
4:04pm 1.6ft 8s 13 16 mph 1014.5mb 59f 64f
3:04pm 1.3ft 3s 9 11 mph 1014.5mb 59f 63f
2:04pm 1.6ft 3s 11 13 mph 1014.4mb 59f 63f
1:04pm 1.3ft 3s 13 20 mph 1015.1mb 59f 62f
9:04am 1.6ft 3s 16 18 mph 1016.2mb 59f 60f
8:04am 1.3ft 3s 16 18 mph 1016mb 59f 59f
7:04am 2ft 8s 11 13 mph 1014.7mb 59f 60f
6:04am 2.5ft 8s 13 16 mph 1014.6mb 59f 60f
5:04am 2ft 4s 13 16 mph 1014.1mb 59f 60f
4:04am 2.5ft 4s 16 20 mph 1013.9mb 59f 60f
3:04am 3ft 4s 20 22 mph 1013.4mb 59f 60f
2:04am 3ft 4s 20 22 mph 1013.5mb 59f 60f
1:04am 3.5ft 4s 18 20 mph 1014.1mb 59f 60f
12:04am 3ft 4s 13 18 mph 1014.3mb 59f 60f
Thu 10/19 11:04pm 3ft 5s 16 20 mph 1014.8mb 59f 60f
10:04pm 3.5ft 4s 20 22 mph 1014.9mb 59f 60f
9:04pm 3.5ft 5s 20 22 mph 1014.8mb 60f 61f
8:04pm 3ft 5s 20 22 mph 1014.8mb 60f 61f
7:04pm 3ft 4s 22 25 mph 1014.8mb 60f 62f
6:04pm 2.5ft 4s 18 22 mph 1015.1mb 60f 63f
5:04pm 2.5ft 4s 20 22 mph 1015.3mb 60f 64f
4:04pm 2.5ft 4s 16 20 mph 1016.2mb 60f 64f
3:04pm 1.6ft 3s 13 16 mph 1017.1mb 60f 64f
2:04pm 1.3ft 4s 11 16 mph 1017.9mb 60f 64f
1:04pm 1.3ft 3s 9 9 mph 1019.2mb 60f 62f
12:04pm 1.6ft 3s 11 13 mph 1020.3mb 60f 61f
11:04am 2.5ft 4s 16 18 mph 1021mb 59f 60f
10:04am 2ft 4s 16 18 mph 1021.7mb 59f 59f
9:04am 1.6ft 3s 16 18 mph 1022.2mb 59f 59f
8:04am 1.6ft 3s 13 18 mph 1022.6mb 59f 58f
7:04am 1.3ft 3s 11 13 mph 1022.5mb 60f 58f